Time;durP1;ratioP1;P1;durP2;ratioP2;P2;SDS_P1;SDS_P2;PMS_P1;PMS_P2;Temp;Humidity;BMP_temperature;BMP_pressure;BME280_temperature;BME280_humidity;BME280_pressure;Samples;Min_cycle;Max_cycle;Signal;HPM_P1;HPM_P2
2023/10/21 00:01:09;;;;;;;0.00;0.00;;;;;;;12.13;100.00;98219.50;5111094;28;20105;-43
2023/10/21 00:03:35;;;;;;;0.00;0.00;;;;;;;12.13;100.00;98227.56;5109701;28;20036;-41
2023/10/21 00:06:00;;;;;;;0.00;0.00;;;;;;;12.12;100.00;98225.97;5091980;28;20038;-42
2023/10/21 00:08:27;;;;;;;0.00;0.00;;;;;;;12.07;100.00;98222.13;5109471;28;20110;-42
2023/10/21 00:11:05;;;;;;;0.00;0.00;;;;;;;12.09;100.00;98229.97;5108958;28;20240;-42
2023/10/21 00:13:31;;;;;;;0.00;0.00;;;;;;;12.10;100.00;98230.78;5116579;28;20108;-42
2023/10/21 00:15:57;;;;;;;0.00;0.00;;;;;;;12.10;100.00;98234.28;5109614;28;20062;-41
2023/10/21 00:18:24;;;;;;;0.00;0.00;;;;;;;12.12;100.00;98231.34;5109377;28;20544;-43
2023/10/21 00:20:52;;;;;;;0.00;0.00;;;;;;;12.19;100.00;98238.16;5098149;28;20110;-42
2023/10/21 00:23:17;;;;;;;0.00;0.00;;;;;;;12.17;100.00;98243.00;5090901;28;20027;-42
2023/10/21 00:25:42;;;;;;;0.00;0.00;;;;;;;12.18;100.00;98233.00;5109982;28;20023;-44
2023/10/21 00:28:08;;;;;;;0.00;0.00;;;;;;;12.16;100.00;98241.34;5110449;28;20051;-43
2023/10/21 00:30:33;;;;;;;0.00;0.00;;;;;;;12.20;100.00;98247.06;5110779;28;20031;-42
2023/10/21 00:32:58;;;;;;;0.00;0.00;;;;;;;12.19;100.00;98250.81;5110365;28;20028;-40
2023/10/21 00:35:24;;;;;;;0.00;0.00;;;;;;;12.21;100.00;98248.69;5110623;28;20063;-43
2023/10/21 00:37:49;;;;;;;0.00;0.00;;;;;;;12.19;100.00;98250.81;5110815;28;20024;-41
2023/10/21 00:40:14;;;;;;;0.00;0.00;;;;;;;12.17;100.00;98252.97;5110200;28;20256;-40
2023/10/21 00:42:40;;;;;;;0.00;0.00;;;;;;;12.18;100.00;98270.75;5109762;28;20362;-41
2023/10/21 00:45:06;;;;;;;0.00;0.00;;;;;;;12.19;100.00;98267.81;5110203;28;20441;-41
2023/10/21 00:47:31;;;;;;;0.00;0.00;;;;;;;12.20;100.00;98263.25;5108843;28;20035;-41
2023/10/21 00:49:57;;;;;;;0.00;0.00;;;;;;;12.23;100.00;98273.50;5110769;28;20024;-40
2023/10/21 00:52:22;;;;;;;0.00;0.00;;;;;;;12.24;100.00;98277.81;5113924;28;20038;-41
2023/10/21 00:54:48;;;;;;;0.00;0.00;;;;;;;12.23;100.00;98278.91;5114279;28;20100;-41
2023/10/21 00:57:14;;;;;;;0.00;0.00;;;;;;;12.23;100.00;98287.81;5113386;28;20027;-41
2023/10/21 00:59:41;;;;;;;0.00;0.00;;;;;;;12.25;100.00;98282.16;5113377;28;20059;-41
2023/10/21 01:02:06;;;;;;;0.00;0.00;;;;;;;12.29;100.00;98285.97;5113580;28;20473;-42
2023/10/21 01:04:31;;;;;;;0.00;0.00;;;;;;;12.26;100.00;98284.59;5130563;27;20338;-40
2023/10/21 01:06:57;;;;;;;0.00;0.00;;;;;;;12.27;100.00;98280.84;5094700;28;20492;-41
2023/10/21 01:09:24;;;;;;;0.00;0.00;;;;;;;12.30;100.00;98295.69;5113476;28;20047;-40
2023/10/21 01:11:49;;;;;;;0.00;0.00;;;;;;;12.29;100.00;98283.25;5113452;28;20400;-41
2023/10/21 01:14:14;;;;;;;0.00;0.00;;;;;;;12.27;100.00;98293.50;5113875;28;20543;-41
2023/10/21 01:16:40;;;;;;;0.00;0.00;;;;;;;12.29;100.00;98304.84;5112356;28;20024;-42
2023/10/21 01:19:06;;;;;;;0.00;0.00;;;;;;;12.29;100.00;98304.84;5112344;28;20110;-42
2023/10/21 01:21:32;;;;;;;0.00;0.00;;;;;;;12.34;100.00;98299.50;5111665;28;20043;-40
2023/10/21 01:23:57;;;;;;;0.00;0.00;;;;;;;12.32;100.00;98304.31;5111711;28;20024;-40
2023/10/21 01:26:23;;;;;;;0.00;0.00;;;;;;;12.29;100.00;98294.06;5112392;28;20027;-41
2023/10/21 01:28:48;;;;;;;0.00;0.00;;;;;;;12.27;100.00;98298.91;5111887;28;20544;-41
2023/10/21 01:31:13;;;;;;;0.00;0.00;;;;;;;12.29;100.00;98307.53;5112240;28;20032;-41
2023/10/21 01:33:39;;;;;;;0.00;0.00;;;;;;;12.27;100.00;98307.81;5112489;28;20110;-41
2023/10/21 01:36:05;;;;;;;0.00;0.00;;;;;;;12.26;100.00;98308.84;5111372;28;20126;-42
2023/10/21 01:38:30;;;;;;;0.00;0.00;;;;;;;12.25;100.00;98312.63;5113297;28;20023;-41
2023/10/21 01:40:55;;;;;;;0.00;0.00;;;;;;;12.28;100.00;98314.81;5111414;28;20031;-42
2023/10/21 01:43:21;;;;;;;0.00;0.00;;;;;;;12.25;100.00;98314.53;5111259;28;20488;-43
2023/10/21 01:45:46;;;;;;;0.00;0.00;;;;;;;12.23;100.00;98314.75;5111916;28;20031;-44
2023/10/21 01:48:12;;;;;;;0.00;0.00;;;;;;;12.21;100.00;98314.19;5111790;28;20381;-41
2023/10/21 01:50:37;;;;;;;0.00;0.00;;;;;;;12.19;100.00;98323.63;5112339;28;20112;-41
2023/10/21 01:53:03;;;;;;;0.00;0.00;;;;;;;12.19;100.00;98329.84;5111984;28;20552;-41
2023/10/21 01:55:28;;;;;;;0.00;0.00;;;;;;;12.18;100.00;98325.50;5112075;28;20040;-43
2023/10/21 01:57:54;;;;;;;0.00;0.00;;;;;;;12.18;100.00;98325.50;5111942;28;20028;-40
2023/10/21 02:00:20;;;;;;;0.00;0.00;;;;;;;12.20;100.00;98327.94;5111512;28;20038;-41
2023/10/21 02:02:50;;;;;;;0.00;0.00;;;;;;;12.18;100.00;98325.50;5109730;28;20266;-41
2023/10/21 02:05:16;;;;;;;0.00;0.00;;;;;;;12.18;100.00;98324.69;5108465;28;20511;-42
2023/10/21 02:07:42;;;;;;;0.00;0.00;;;;;;;12.18;100.00;98332.78;5092620;28;20114;-42
2023/10/21 02:10:07;;;;;;;0.00;0.00;;;;;;;12.18;100.00;98340.88;5111666;28;20030;-42
2023/10/21 02:12:33;;;;;;;0.00;0.00;;;;;;;12.21;100.00;98343.06;5112247;28;20034;-41
2023/10/21 02:14:58;;;;;;;0.00;0.00;;;;;;;12.22;100.00;98348.22;5111577;28;20031;-41
2023/10/21 02:17:23;;;;;;;0.00;0.00;;;;;;;12.20;100.00;98350.34;5111736;28;20019;-43
2023/10/21 02:19:56;;;;;;;0.00;0.00;;;;;;;12.21;100.00;98356.53;5111197;28;20024;-42
2023/10/21 02:22:22;;;;;;;0.00;0.00;;;;;;;12.21;100.00;98353.84;5094571;28;20489;-42
2023/10/21 02:24:47;;;;;;;0.00;0.00;;;;;;;12.21;100.00;98360.03;5111210;28;20035;-39
2023/10/21 02:27:12;;;;;;;0.00;0.00;;;;;;;12.22;100.00;98366.28;5111183;28;20168;-40
2023/10/21 02:29:38;;;;;;;0.00;0.00;;;;;;;12.23;100.00;98370.59;5111280;28;20128;-42
2023/10/21 02:32:03;;;;;;;0.00;0.00;;;;;;;12.28;100.00;98376.03;5111108;28;20036;-42
2023/10/21 02:34:28;;;;;;;0.00;0.00;;;;;;;12.28;100.00;98371.44;5112340;28;20039;-41
2023/10/21 02:36:54;;;;;;;0.00;0.00;;;;;;;12.29;100.00;98374.97;5112487;28;20100;-41
2023/10/21 02:39:19;;;;;;;0.00;0.00;;;;;;;12.27;100.00;98371.72;5110365;28;20161;-44
2023/10/21 02:41:44;;;;;;;0.00;0.00;;;;;;;12.25;100.00;98376.56;5111102;28;20103;-41
2023/10/21 02:44:09;;;;;;;0.00;0.00;;;;;;;12.27;100.00;98383.31;5110847;28;20039;-44
2023/10/21 02:46:35;;;;;;;0.00;0.00;;;;;;;12.24;100.00;98389.22;5111811;28;20042;-39
2023/10/21 02:49:00;;;;;;;0.00;0.00;;;;;;;12.27;100.00;98393.28;5109190;28;20032;-42
2023/10/21 02:51:25;;;;;;;0.00;0.00;;;;;;;12.31;100.00;98394.41;5110962;28;20032;-42
2023/10/21 02:53:51;;;;;;;0.00;0.00;;;;;;;12.24;100.00;98386.53;5091371;28;20051;-41
2023/10/21 02:56:17;;;;;;;0.00;0.00;;;;;;;12.21;100.00;98388.91;5111600;28;20470;-43
2023/10/21 02:58:43;;;;;;;0.00;0.00;;;;;;;12.17;100.00;98393.19;5111782;28;20023;-42
2023/10/21 03:01:16;;;;;;;0.00;0.00;;;;;;;12.14;100.00;98397.19;5095085;28;20044;-42
2023/10/21 03:03:43;;;;;;;0.00;0.00;;;;;;;12.12;100.00;98396.63;5113389;28;20055;-41
2023/10/21 03:06:09;;;;;;;0.00;0.00;;;;;;;12.12;100.00;98403.91;5113375;28;20032;-41
2023/10/21 03:08:37;;;;;;;0.00;0.00;;;;;;;12.07;100.00;98410.84;5113315;28;20027;-41
2023/10/21 03:11:03;;;;;;;0.00;0.00;;;;;;;12.04;100.00;98405.16;5113839;28;20603;-41
2023/10/21 03:13:31;;;;;;;0.00;0.00;;;;;;;12.00;100.00;98401.31;5114056;28;20032;-40
2023/10/21 03:15:57;;;;;;;;;;;;;;;11.96;100.00;98409.09;5114990;28;20487;-41
2023/10/21 03:18:22;;;;;;;0.00;0.00;;;;;;;11.95;100.00;98415.53;5114765;28;19941;-42
2023/10/21 03:20:54;;;;;;;0.00;0.00;;;;;;;11.99;100.00;98416.69;5115277;28;20043;-41
2023/10/21 03:23:19;;;;;;;0.00;0.00;;;;;;;11.98;100.00;98420.47;5114284;28;20077;-41
2023/10/21 03:25:55;;;;;;;0.00;0.00;;;;;;;11.98;100.00;98427.72;5111737;28;20379;-42
2023/10/21 03:28:22;;;;;;;0.00;0.00;;;;;;;12.03;100.00;98427.78;5111765;28;20020;-41
2023/10/21 03:30:47;;;;;;;0.00;0.00;;;;;;;12.02;100.00;98424.28;5111741;28;20030;-42
2023/10/21 03:33:13;;;;;;;0.00;0.00;;;;;;;12.03;100.00;98423.22;5111006;28;20478;-41
2023/10/21 03:35:38;;;;;;;0.00;0.00;;;;;;;12.02;100.00;98429.66;5093678;28;20020;-41
2023/10/21 03:38:04;;;;;;;0.00;0.00;;;;;;;12.03;100.00;98436.69;5111632;28;20082;-44
2023/10/21 03:40:29;;;;;;;0.00;0.00;;;;;;;12.00;100.00;98437.19;5111545;28;20208;-40
2023/10/21 03:42:54;;;;;;;0.00;0.00;;;;;;;12.07;100.00;98443.22;5093552;28;20027;-41
2023/10/21 03:45:20;;;;;;;0.00;0.00;;;;;;;12.02;100.00;98445.84;5111499;28;20485;-41
2023/10/21 03:47:45;;;;;;;0.00;0.00;;;;;;;12.00;100.00;98447.97;5111391;28;20382;-41
2023/10/21 03:50:10;;;;;;;0.00;0.00;;;;;;;11.99;100.00;98454.44;5092034;28;20088;-40
2023/10/21 03:52:36;;;;;;;0.00;0.00;;;;;;;12.01;100.00;98451.50;5109874;28;20385;-41
2023/10/21 03:55:01;;;;;;;0.00;0.00;;;;;;;11.99;100.00;98459.00;5109890;28;20035;-41
2023/10/21 03:57:26;;;;;;;0.00;0.00;;;;;;;11.97;100.00;98461.13;5109415;28;20485;-41
2023/10/21 03:59:52;;;;;;;0.00;0.00;;;;;;;11.93;100.00;98455.44;5129897;27;20107;-41
2023/10/21 04:02:17;;;;;;;0.00;0.00;;;;;;;11.93;100.00;98462.69;5103676;28;20043;-43
2023/10/21 04:04:42;;;;;;;0.00;0.00;;;;;;;11.90;100.00;98465.88;5109771;28;20107;-41
2023/10/21 04:07:08;;;;;;;0.00;0.00;;;;;;;11.91;100.00;98464.84;5108792;28;20433;-41
2023/10/21 04:09:33;;;;;;;0.00;0.00;;;;;;;11.88;100.00;98473.41;5108879;28;20031;-41
2023/10/21 04:11:59;;;;;;;0.00;0.00;;;;;;;11.85;100.00;98466.63;5108775;28;20027;-42
2023/10/21 04:14:24;;;;;;;0.00;0.00;;;;;;;11.83;100.00;98480.31;5109089;28;20035;-41
2023/10/21 04:16:49;;;;;;;0.00;0.00;;;;;;;11.83;100.00;98493.00;5108835;28;20023;-40
2023/10/21 04:19:16;;;;;;;0.00;0.00;;;;;;;11.83;100.00;98493.81;5110041;28;20165;-43
2023/10/21 04:21:41;;;;;;;0.00;0.00;;;;;;;11.82;100.00;98502.97;5090636;28;20512;-41
2023/10/21 04:24:07;;;;;;;0.00;0.00;;;;;;;11.81;100.00;98505.88;5108779;28;20118;-42
2023/10/21 04:26:32;;;;;;;0.00;0.00;;;;;;;11.84;100.00;98508.09;5111523;28;20039;-42
2023/10/21 04:28:57;;;;;;;0.00;0.00;;;;;;;11.85;100.00;98515.13;5113198;28;20028;-42
2023/10/21 04:31:24;;;;;;;0.00;0.00;;;;;;;11.88;100.00;98521.94;5113052;28;20020;-42
2023/10/21 04:33:50;;;;;;;0.00;0.00;;;;;;;11.91;100.00;98529.53;5113047;28;20027;-42
2023/10/21 04:36:18;;;;;;;0.00;0.00;;;;;;;11.95;100.00;98536.84;5112526;28;20032;-41
2023/10/21 04:38:44;;;;;;;0.00;0.00;;;;;;;12.01;100.00;98540.47;5112697;28;20118;-41
2023/10/21 04:41:10;;;;;;;0.00;0.00;;;;;;;12.04;100.00;98540.75;5112898;28;20033;-40
2023/10/21 04:43:35;;;;;;;0.00;0.00;;;;;;;12.09;100.00;98537.34;5113550;28;20466;-41
2023/10/21 04:46:01;;;;;;;0.00;0.00;;;;;;;12.12;100.00;98541.41;5112796;28;20043;-44
2023/10/21 04:48:26;;;;;;;0.00;0.00;;;;;;;12.19;100.00;98539.34;5112880;28;20244;-39
2023/10/21 04:50:52;;;;;;;0.00;0.00;;;;;;;12.21;100.00;98545.31;5115520;28;20019;-42
2023/10/21 04:53:17;;;;;;;0.00;0.00;;;;;;;12.21;100.00;98553.38;5114301;28;20110;-40
2023/10/21 04:55:42;;;;;;;0.00;0.00;;;;;;;12.23;100.00;98559.34;5115975;28;20114;-42
2023/10/21 04:58:08;;;;;;;0.00;0.00;;;;;;;12.26;100.00;98558.84;5111582;28;20043;-41
2023/10/21 05:00:33;;;;;;;0.00;0.00;;;;;;;12.27;100.00;98565.91;5113485;28;20046;-40
2023/10/21 05:02:59;;;;;;;0.00;0.00;;;;;;;12.29;100.00;98569.13;5111880;28;20378;-41
2023/10/21 05:05:24;;;;;;;0.00;0.00;;;;;;;12.29;100.00;98569.94;5110869;27;20080;-43
2023/10/21 05:07:49;;;;;;;0.00;0.00;;;;;;;12.29;100.00;98564.56;5106551;28;20043;-41
2023/10/21 05:10:15;;;;;;;0.00;0.00;;;;;;;12.31;100.00;98561.63;5111536;28;20393;-43
2023/10/21 05:12:40;;;;;;;0.00;0.00;;;;;;;12.30;100.00;98568.09;5088767;28;20030;-41
2023/10/21 05:15:06;;;;;;;0.00;0.00;;;;;;;12.34;100.00;98573.78;5104323;28;20172;-42
2023/10/21 05:17:31;;;;;;;0.00;0.00;;;;;;;12.32;100.00;98563.25;5107401;28;20099;-40
2023/10/21 05:19:57;;;;;;;0.00;0.00;;;;;;;12.31;100.00;98569.72;5106320;28;20034;-42
2023/10/21 05:22:22;;;;;;;0.00;0.00;;;;;;;12.31;100.00;98572.41;5109512;28;20054;-40
2023/10/21 05:24:47;;;;;;;0.00;0.00;;;;;;;12.41;100.00;98572.56;5102379;28;20034;-41
2023/10/21 05:27:13;;;;;;;0.00;0.00;;;;;;;12.40;100.00;98576.31;5110438;28;20089;-42
2023/10/21 05:29:38;;;;;;;0.00;0.00;;;;;;;12.43;100.00;98586.63;5105705;28;20023;-42
2023/10/21 05:32:03;;;;;;;0.00;0.00;;;;;;;12.44;100.00;98577.44;5111677;28;20015;-41
2023/10/21 05:34:29;;;;;;;0.00;0.00;;;;;;;12.42;100.00;98579.56;5102018;28;20031;-42
2023/10/21 05:36:54;;;;;;;0.00;0.00;;;;;;;12.47;100.00;98579.63;5108154;28;20028;-41
2023/10/21 05:39:19;;;;;;;0.00;0.00;;;;;;;12.46;100.00;98586.13;5110293;28;20451;-41
2023/10/21 05:41:45;;;;;;;0.00;0.00;;;;;;;12.47;100.00;98584.22;5105355;28;20489;-42
2023/10/21 05:44:10;;;;;;;0.00;0.00;;;;;;;12.50;100.00;98598.03;5103432;28;20019;-41
2023/10/21 05:46:36;;;;;;;0.00;0.00;;;;;;;12.47;100.00;98592.31;5102182;28;20138;-42
2023/10/21 05:49:02;;;;;;;0.00;0.00;;;;;;;12.56;100.00;98590.84;5101432;28;20034;-42
2023/10/21 05:51:27;;;;;;;0.00;0.00;;;;;;;12.54;100.00;98597.53;5101416;28;20032;-42
2023/10/21 05:53:53;;;;;;;0.00;0.00;;;;;;;12.53;100.00;98602.09;5106580;28;20541;-43
2023/10/21 05:56:18;;;;;;;0.00;0.00;;;;;;;12.55;100.00;98612.66;5103870;28;20118;-43
2023/10/21 05:58:43;;;;;;;0.00;0.00;;;;;;;12.58;100.00;98614.84;5105224;28;20020;-42
2023/10/21 06:01:09;;;;;;;0.00;0.00;;;;;;;12.59;100.00;98616.50;5112210;28;20489;-42
2023/10/21 06:03:39;;;;;;;0.00;0.00;;;;;;;12.56;100.00;98623.22;5109105;28;20047;-42
2023/10/21 06:06:05;;;;;;;0.00;0.00;;;;;;;12.55;100.00;98626.16;5110125;28;20232;-39
2023/10/21 06:08:31;;;;;;;0.00;0.00;;;;;;;12.56;100.00;98633.16;5112240;28;20039;-40
2023/10/21 06:10:57;;;;;;;0.00;0.00;;;;;;;12.64;100.00;98632.75;5090538;28;20053;-41
2023/10/21 06:13:22;;;;;;;0.00;0.00;;;;;;;12.62;100.00;98638.41;5093186;28;20511;-41
2023/10/21 06:15:48;;;;;;;0.00;0.00;;;;;;;12.60;100.00;98650.50;5110719;28;20023;-41
2023/10/21 06:18:13;;;;;;;0.00;0.00;;;;;;;12.61;100.00;98649.44;5111269;28;20522;-44
2023/10/21 06:20:39;;;;;;;0.00;0.00;;;;;;;12.66;100.00;98657.59;5113279;28;20038;-41
2023/10/21 06:23:04;;;;;;;0.00;0.00;;;;;;;12.65;100.00;98661.38;5086875;28;20405;-40
2023/10/21 06:25:31;;;;;;;0.00;0.00;;;;;;;12.66;100.00;98668.38;5109935;28;20539;-44
2023/10/21 06:27:57;;;;;;;0.00;0.00;;;;;;;12.70;100.00;98664.16;5113375;28;20051;-42
2023/10/21 06:30:23;;;;;;;0.00;0.00;;;;;;;12.71;100.00;98673.88;5105127;28;20027;-40
2023/10/21 06:32:48;;;;;;;0.00;0.00;;;;;;;12.69;100.00;98670.59;5112106;28;20038;-42
2023/10/21 06:35:14;;;;;;;0.00;0.00;;;;;;;12.68;100.00;98674.38;5094786;28;20116;-42
2023/10/21 06:37:39;;;;;;;0.00;0.00;;;;;;;12.69;100.00;98684.09;5112023;28;20035;-41
2023/10/21 06:40:06;;;;;;;0.00;0.00;;;;;;;12.72;100.00;98694.41;5112224;28;20094;-42
2023/10/21 06:42:32;;;;;;;0.00;0.00;;;;;;;12.73;100.00;98696.03;5112133;28;20028;-41
2023/10/21 06:44:58;;;;;;;0.00;0.00;;;;;;;12.78;100.00;98693.41;5114654;28;20020;-41
2023/10/21 06:47:24;;;;;;;0.00;0.00;;;;;;;12.79;100.00;98699.63;5113112;28;20466;-42
2023/10/21 06:49:49;;;;;;;0.00;0.00;;;;;;;12.81;100.00;98709.09;5109741;28;20028;-43
2023/10/21 06:52:17;;;;;;;0.00;0.00;;;;;;;12.80;100.00;98715.56;5108394;28;20110;-41
2023/10/21 06:54:43;;;;;;;0.05;0.00;;;;;;;12.86;100.00;98709.16;5110333;28;20402;-42
2023/10/21 06:57:08;;;;;;;0.00;0.00;;;;;;;12.85;100.00;98722.91;5107988;28;20031;-41
2023/10/21 06:59:34;;;;;;;0.00;0.00;;;;;;;12.88;100.00;98739.44;5109797;28;20096;-42
2023/10/21 07:01:59;;;;;;;0.00;0.00;;;;;;;12.87;100.00;98735.09;5104716;28;20051;-41
2023/10/21 07:04:25;;;;;;;0.00;0.00;;;;;;;12.87;100.00;98735.09;5109236;28;20019;-39
2023/10/21 07:06:50;;;;;;;0.00;0.00;;;;;;;12.91;100.00;98736.25;5110378;28;20046;-43
2023/10/21 07:09:16;;;;;;;0.00;0.00;;;;;;;12.92;100.00;98737.84;5110426;28;20062;-42
2023/10/21 07:11:41;;;;;;;0.00;0.00;;;;;;;12.91;100.00;98743.53;5092170;28;20046;-41
2023/10/21 07:14:07;;;;;;;0.00;0.00;;;;;;;12.91;100.00;98736.25;5111704;28;20023;-40
2023/10/21 07:16:32;;;;;;;0.00;0.00;;;;;;;12.96;100.00;98749.00;5102244;28;20046;-41
2023/10/21 07:18:57;;;;;;;0.00;0.00;;;;;;;12.99;100.00;98751.19;5110452;28;20137;-42
2023/10/21 07:21:24;;;;;;;0.00;0.00;;;;;;;13.02;100.00;98749.88;5091955;28;20023;-42
2023/10/21 07:23:49;;;;;;;0.00;0.00;;;;;;;13.01;100.00;98749.06;5107248;28;20027;-41
2023/10/21 07:26:15;;;;;;;0.00;0.00;;;;;;;13.06;100.00;98751.84;5107043;28;20028;-42
2023/10/21 07:28:40;;;;;;;0.00;0.00;;;;;;;13.10;100.00;98749.44;5107555;28;20438;-42
2023/10/21 07:31:05;;;;;;;0.00;0.00;;;;;;;13.13;100.00;98754.34;5108852;28;20042;-42
2023/10/21 07:33:31;;;;;;;0.00;0.00;;;;;;;13.11;100.00;98760.00;5108782;28;20028;-41
2023/10/21 07:35:56;;;;;;;0.00;0.00;;;;;;;13.12;100.00;98766.22;5108237;28;20027;-40
2023/10/21 07:38:21;;;;;;;0.00;0.00;;;;;;;13.14;100.00;98764.09;5107731;28;20072;-42
2023/10/21 07:40:48;;;;;;;0.00;0.00;;;;;;;13.15;100.00;98765.72;5109419;28;20039;-41
2023/10/21 07:43:14;;;;;;;0.00;0.00;;;;;;;13.15;100.00;98779.22;5107605;28;20055;-41
2023/10/21 07:45:42;;;;;;;0.00;0.00;;;;;;;13.17;100.00;98779.81;5108961;28;20023;-43
2023/10/21 07:48:07;;;;;;;;;;;;;;;13.17;100.00;98785.22;5106554;28;20401;-41
2023/10/21 07:50:32;;;;;;;0.00;0.00;;;;;;;13.16;100.00;98783.56;5104959;28;19962;-42
2023/10/21 07:52:58;;;;;;;0.00;0.00;;;;;;;13.17;100.00;98774.41;5108169;28;20164;-41
2023/10/21 07:55:23;;;;;;;0.00;0.00;;;;;;;13.14;100.00;98788.41;5107257;28;20092;-41
2023/10/21 07:57:49;;;;;;;0.00;0.00;;;;;;;13.13;100.00;98802.97;5111472;28;20062;-42
2023/10/21 08:00:15;;;;;;;0.00;0.00;;;;;;;13.07;100.00;98803.97;5112739;28;20035;-41
2023/10/21 08:02:40;;;;;;;0.00;0.00;;;;;;;12.96;100.00;98801.09;5116542;28;20115;-40
2023/10/21 08:05:07;;;;;;;0.00;0.00;;;;;;;12.94;100.00;98814.03;5115738;28;20027;-41
2023/10/21 08:07:33;;;;;;;0.00;0.00;;;;;;;12.96;100.00;98803.81;5115626;28;20028;-42
2023/10/21 08:09:58;;;;;;;0.00;0.00;;;;;;;12.97;100.00;98796.53;5115176;28;20029;-41
2023/10/21 08:12:23;;;;;;;0.00;0.00;;;;;;;12.98;100.00;98808.97;5115489;28;20028;-41
2023/10/21 08:14:49;;;;;;;0.00;0.00;;;;;;;12.95;100.00;98815.69;5115006;28;20023;-42
2023/10/21 08:17:15;;;;;;;0.00;0.00;;;;;;;12.95;100.00;98829.19;5114971;28;20063;-39
2023/10/21 08:19:40;;;;;;;0.00;0.00;;;;;;;12.99;100.00;98831.38;5114413;28;20020;-41
2023/10/21 08:22:05;;;;;;;0.00;0.00;;;;;;;12.94;100.00;98838.34;5115278;28;20043;-41
2023/10/21 08:24:32;;;;;;;0.00;0.00;;;;;;;12.95;100.00;98853.50;5115124;28;20140;-42
2023/10/21 08:26:58;;;;;;;0.00;0.00;;;;;;;12.91;100.00;98856.91;5115325;28;20024;-41
2023/10/21 08:29:23;;;;;;;0.00;0.00;;;;;;;12.91;100.00;98873.94;5114616;28;20023;-43
2023/10/21 08:31:48;;;;;;;0.00;0.00;;;;;;;12.89;100.00;98865.25;5115074;28;20090;-42
2023/10/21 08:34:14;;;;;;;0.00;0.00;;;;;;;12.90;100.00;98872.31;5114668;28;20039;-41
2023/10/21 08:36:40;;;;;;;0.00;0.00;;;;;;;12.94;100.00;98865.34;5115228;28;20286;-41
2023/10/21 08:39:07;;;;;;;0.00;0.00;;;;;;;12.93;100.00;98871.00;5114435;28;20027;-42
2023/10/21 08:41:37;;;;;;;0.00;0.00;;;;;;;12.92;100.00;98867.47;5114678;28;20038;-42
2023/10/21 08:44:05;;;;;;;0.00;0.00;;;;;;;12.95;100.00;98871.53;5104873;28;20570;-41
2023/10/21 08:46:31;;;;;;;;;;;;;;;13.00;100.00;98860.00;5094535;28;20028;-41
2023/10/21 08:48:56;;;;;;;0.00;0.00;;;;;;;13.01;100.00;98856.28;5094044;28;19915;-42
2023/10/21 08:51:21;;;;;;;0.00;0.00;;;;;;;13.00;100.00;98860.84;5109879;28;20020;-42
2023/10/21 08:53:49;;;;;;;0.00;0.00;;;;;;;13.01;100.00;98864.38;5094265;28;20032;-42
2023/10/21 08:56:15;;;;;;;0.00;0.00;;;;;;;12.99;100.00;98858.41;5110247;28;20093;-40
2023/10/21 08:58:41;;;;;;;0.00;0.00;;;;;;;12.97;100.00;98864.03;5093990;28;20425;-41
2023/10/21 09:01:07;;;;;;;0.00;0.00;;;;;;;13.06;100.00;98881.47;5094121;28;20500;-42
2023/10/21 09:03:32;;;;;;;0.00;0.00;;;;;;;13.00;100.00;98887.84;5094429;28;20056;-41
2023/10/21 09:06:06;;;;;;;0.00;0.00;;;;;;;12.98;100.00;98889.97;5093594;28;20033;-43
2023/10/21 09:08:31;;;;;;;0.00;0.00;;;;;;;12.99;100.00;98890.78;5093239;28;20024;-42
2023/10/21 09:10:58;;;;;;;0.00;0.00;;;;;;;12.93;100.00;98890.72;5093681;28;20028;-42
2023/10/21 09:13:29;;;;;;;0.00;0.00;;;;;;;12.94;100.00;98897.72;5093947;28;20031;-40
2023/10/21 09:15:54;;;;;;;0.00;0.00;;;;;;;12.91;100.00;98906.34;5095226;28;20441;-41
2023/10/21 09:18:20;;;;;;;0.00;0.00;;;;;;;12.91;100.00;98910.91;5095686;28;20128;-40
2023/10/21 09:20:51;;;;;;;0.00;0.00;;;;;;;13.01;100.00;98919.19;5077578;28;20439;-43
2023/10/21 09:23:19;;;;;;;0.00;0.00;;;;;;;13.04;100.00;98921.41;5076063;28;20035;-40
2023/10/21 09:25:51;;;;;;;0.00;0.00;;;;;;;13.05;100.00;98911.41;5093875;28;20082;-41
2023/10/21 09:28:21;;;;;;;0.00;0.00;;;;;;;13.04;100.00;98923.28;5093656;28;20056;-40
2023/10/21 09:31:01;;;;;;;0.00;0.00;;;;;;;13.09;100.00;98931.47;5093782;28;20020;-39
2023/10/21 09:33:27;;;;;;;0.00;0.00;;;;;;;13.01;100.00;98921.91;5093764;28;20023;-41
2023/10/21 09:36:03;;;;;;;0.00;0.00;;;;;;;13.06;100.00;98945.44;5094470;28;20081;-41
2023/10/21 09:38:35;;;;;;;0.00;0.00;;;;;;;13.14;100.00;98939.66;5094279;28;20432;-41
2023/10/21 09:41:08;;;;;;;0.00;0.00;;;;;;;13.37;100.00;98936.78;5110345;28;20035;-41
2023/10/21 09:43:36;;;;;;;0.00;0.00;;;;;;;13.48;100.00;98934.25;5078747;28;20020;-41
2023/10/21 09:46:05;;;;;;;0.00;0.00;;;;;;;13.63;100.00;98939.88;5095847;28;20050;-41
2023/10/21 09:48:35;;;;;;;0.00;0.00;;;;;;;13.84;100.00;98941.78;5096500;28;20040;-41
2023/10/21 09:51:00;;;;;;;0.00;0.00;;;;;;;13.74;100.00;98944.34;5096496;28;20444;-43
2023/10/21 09:53:34;;;;;;;0.00;0.00;;;;;;;13.68;100.00;98937.25;5111290;28;20034;-42
2023/10/21 09:55:59;;;;;;;0.00;0.00;;;;;;;13.70;100.00;98951.34;5110410;28;20028;-42
2023/10/21 09:58:27;;;;;;;0.00;0.00;;;;;;;13.65;100.00;98945.88;5093475;28;20035;-39
2023/10/21 10:00:54;;;;;;;0.00;0.00;;;;;;;13.72;100.00;98943.81;5075429;28;20028;-41
2023/10/21 10:03:20;;;;;;;0.00;0.00;;;;;;;13.78;100.00;98942.00;5092863;28;20538;-42
2023/10/21 10:05:46;;;;;;;0.00;0.00;;;;;;;13.95;100.00;98956.28;5108951;28;20111;-42
2023/10/21 10:08:11;;;;;;;0.00;0.00;;;;;;;13.84;100.00;98952.63;5075490;28;20028;-42
2023/10/21 10:10:38;;;;;;;0.00;0.00;;;;;;;13.93;100.00;98954.88;5092990;28;20479;-41
2023/10/21 10:13:11;;;;;;;0.00;0.00;;;;;;;14.00;100.00;98960.94;5074967;28;20031;-42
2023/10/21 10:15:41;;;;;;;0.00;0.00;;;;;;;14.04;100.00;98967.50;5108329;28;20055;-41
2023/10/21 10:18:15;;;;;;;0.00;0.00;;;;;;;14.13;100.00;98971.38;5094514;28;20024;-39
2023/10/21 10:20:44;;;;;;;0.00;0.00;;;;;;;14.16;100.00;98970.06;5094361;28;20104;-40
2023/10/21 10:23:11;;;;;;;0.00;0.00;;;;;;;14.38;100.00;98973.59;5093776;28;20084;-41
2023/10/21 10:25:41;;;;;;;0.00;0.00;;;;;;;14.36;100.00;98983.03;5093978;28;20099;-41
2023/10/21 10:28:14;;;;;;;0.00;0.00;;;;;;;14.42;100.00;98979.31;5094068;28;20066;-41
2023/10/21 10:30:44;;;;;;;0.00;0.00;;;;;;;14.45;100.00;98978.81;5092576;28;20362;-41
2023/10/21 10:33:13;;;;;;;0.00;0.00;;;;;;;14.67;100.00;98976.13;5108291;28;20043;-41
2023/10/21 10:35:41;;;;;;;0.00;0.00;;;;;;;14.63;100.00;98975.81;5093684;28;20035;-40
2023/10/21 10:38:25;;;;;;;0.00;0.00;;;;;;;14.41;100.00;98985.81;5110780;28;20387;-41
2023/10/21 10:41:07;;;;;;;0.00;0.00;;;;;;;14.41;100.00;98973.09;5094295;28;20320;-41
2023/10/21 10:43:33;;;;;;;0.00;0.00;;;;;;;14.61;100.00;98982.53;5093934;28;20035;-39
2023/10/21 10:46:00;;;;;;;0.00;0.00;;;;;;;14.69;100.00;98991.03;5092163;28;20028;-41
2023/10/21 10:48:26;;;;;;;0.00;0.00;;;;;;;14.54;100.00;98990.88;5092268;28;20024;-41
2023/10/21 10:50:58;;;;;;;0.00;0.00;;;;;;;14.45;100.00;98982.31;5092251;28;20535;-40
2023/10/21 10:53:23;;;;;;;0.00;0.00;;;;;;;14.46;100.00;98985.88;5073846;28;20024;-41
2023/10/21 10:55:50;;;;;;;0.00;0.00;;;;;;;14.43;100.00;98991.81;5091756;28;20500;-40
2023/10/21 10:58:18;;;;;;;0.00;0.00;;;;;;;14.44;100.00;98988.00;5091617;28;20603;-41
2023/10/21 11:00:45;;;;;;;0.00;0.00;;;;;;;14.53;100.00;98989.22;5091809;28;20038;-42
2023/10/21 11:03:10;;;;;;;0.00;0.00;;;;;;;14.61;100.00;98996.06;5091556;28;20414;-41
2023/10/21 11:05:37;;;;;;;0.00;0.00;;;;;;;14.60;100.00;98995.25;5092367;28;20024;-41
2023/10/21 11:08:04;;;;;;;0.00;0.00;;;;;;;14.78;100.00;99004.94;5092394;28;20032;-40
2023/10/21 11:10:30;;;;;;;0.00;0.00;;;;;;;14.86;100.00;98992.84;5091923;28;20036;-41
2023/10/21 11:12:55;;;;;;;0.00;0.00;;;;;;;14.76;100.00;98992.72;5091533;28;20024;-41
2023/10/21 11:15:22;;;;;;;0.00;0.00;;;;;;;14.50;100.00;98995.09;5091829;28;20580;-41
2023/10/21 11:17:48;;;;;;;0.00;0.00;;;;;;;14.41;100.00;99000.16;5091648;28;20036;-42
2023/10/21 11:20:14;;;;;;;0.00;0.00;;;;;;;14.44;100.00;98998.84;5073614;28;20418;-41
2023/10/21 11:22:41;;;;;;;0.00;0.00;;;;;;;14.52;100.00;98995.69;5094230;28;20501;-39